createdAt,value
2022-11-30T00:01:23.425Z,20.87
2022-11-30T00:03:55.430Z,21.70
2022-11-30T00:06:23.727Z,19.87
2022-11-30T00:08:55.374Z,20.60
2022-11-30T00:11:25.972Z,20.17
2022-11-30T00:13:53.608Z,21.37
2022-11-30T00:16:21.068Z,20.33
2022-11-30T00:18:48.371Z,19.73
2022-11-30T00:21:16.726Z,21.17
2022-11-30T00:23:46.121Z,20.90
2022-11-30T00:26:19.751Z,21.27
2022-11-30T00:28:47.829Z,21.50
2022-11-30T00:31:18.108Z,23.37
2022-11-30T00:33:46.143Z,22.63
2022-11-30T00:36:22.220Z,23.67
2022-11-30T00:38:51.188Z,22.70
2022-11-30T00:41:19.838Z,22.27
2022-11-30T00:43:47.758Z,22.57
2022-11-30T00:46:15.150Z,22.07
2022-11-30T00:48:42.888Z,21.83
2022-11-30T00:51:12.493Z,20.97
2022-11-30T00:53:40.988Z,21.57
2022-11-30T00:56:09.264Z,23.17
2022-11-30T00:58:36.607Z,21.80
2022-11-30T01:01:05.483Z,22.20
2022-11-30T01:03:33.828Z,21.37
2022-11-30T01:06:05.924Z,20.70
2022-11-30T01:08:34.233Z,22.43
2022-11-30T01:11:25.924Z,21.93
2022-11-30T01:13:54.484Z,23.27
2022-11-30T01:16:25.474Z,21.47
2022-11-30T01:18:52.833Z,23.03
2022-11-30T01:21:23.775Z,23.40
2022-11-30T01:23:52.065Z,23.63
2022-11-30T01:26:19.929Z,22.47
2022-11-30T01:28:52.323Z,22.77
2022-11-30T01:31:20.899Z,22.73
2022-11-30T01:33:53.505Z,22.73
2022-11-30T01:36:25.993Z,24.13
2022-11-30T01:38:58.113Z,24.47
2022-11-30T01:41:33.037Z,23.63
2022-11-30T01:44:06.366Z,23.63
2022-11-30T01:46:57.442Z,24.77
2022-11-30T01:49:35.469Z,24.13
2022-11-30T01:52:23.310Z,23.33
2022-11-30T01:54:53.338Z,23.20
2022-11-30T01:57:49.062Z,22.33
2022-11-30T02:00:17.119Z,24.03
2022-11-30T02:02:55.588Z,24.17
2022-11-30T02:05:24.734Z,21.43
2022-11-30T02:07:52.926Z,22.57
2022-11-30T02:10:28.694Z,22.40
2022-11-30T02:13:04.847Z,22.03
2022-11-30T02:15:45.300Z,23.47
2022-11-30T02:18:18.421Z,24.53
2022-11-30T02:21:15.839Z,23.87
2022-11-30T02:24:27.489Z,23.80
2022-11-30T02:27:03.860Z,22.17
2022-11-30T02:29:53.889Z,22.10
2022-11-30T02:32:36.352Z,22.80
2022-11-30T02:35:06.103Z,22.53
2022-11-30T02:37:36.223Z,22.73
2022-11-30T02:40:13.958Z,21.80
2022-11-30T02:42:41.324Z,22.87
2022-11-30T02:45:10.268Z,22.57
2022-11-30T02:47:41.979Z,22.13
2022-11-30T02:50:12.202Z,21.53
2022-11-30T02:52:40.828Z,21.47
2022-11-30T02:55:11.752Z,21.90
2022-11-30T02:57:39.140Z,21.67
2022-11-30T03:00:11.252Z,22.37
2022-11-30T03:02:39.327Z,20.87
2022-11-30T03:05:08.329Z,21.70
2022-11-30T03:07:36.509Z,20.30
2022-11-30T03:10:05.298Z,21.20
2022-11-30T03:12:32.489Z,21.70
2022-11-30T03:14:59.680Z,23.13
2022-11-30T03:17:27.843Z,21.20
2022-11-30T03:19:54.930Z,21.50
2022-11-30T03:22:22.268Z,21.23
2022-11-30T03:24:49.815Z,21.83
2022-11-30T03:27:17.529Z,22.40
2022-11-30T03:29:45.023Z,21.40
2022-11-30T03:32:13.518Z,21.80
2022-11-30T03:34:40.711Z,21.80
2022-11-30T03:37:07.899Z,23.00
2022-11-30T03:39:35.182Z,21.57
2022-11-30T03:42:02.469Z,22.27
2022-11-30T03:44:30.093Z,22.80
2022-11-30T03:46:57.349Z,25.03
2022-11-30T03:49:24.592Z,24.00
2022-11-30T03:51:51.879Z,24.17
2022-11-30T03:54:19.039Z,22.63
2022-11-30T03:56:46.279Z,21.83
2022-11-30T03:59:13.446Z,22.97
2022-11-30T04:01:41.345Z,20.93
2022-11-30T04:04:08.629Z,22.97
2022-11-30T04:06:35.899Z,22.63
2022-11-30T04:09:03.244Z,22.40
2022-11-30T04:11:30.454Z,24.03
2022-11-30T04:13:57.593Z,23.07
2022-11-30T04:16:25.202Z,22.27
2022-11-30T04:18:52.748Z,23.00
2022-11-30T04:21:19.924Z,21.97
2022-11-30T04:23:47.119Z,22.37
2022-11-30T04:26:16.213Z,22.47
2022-11-30T04:28:43.883Z,22.40
2022-11-30T04:31:12.260Z,22.43
2022-11-30T04:33:40.066Z,22.03
2022-11-30T04:36:15.855Z,21.50
2022-11-30T04:38:43.189Z,22.40
2022-11-30T04:41:10.398Z,21.73
2022-11-30T04:43:38.335Z,22.67
2022-11-30T04:46:06.888Z,22.83
2022-11-30T04:48:34.304Z,22.70
2022-11-30T04:51:03.368Z,23.43
2022-11-30T04:53:30.598Z,21.83
2022-11-30T04:55:57.798Z,22.90
2022-11-30T04:58:25.098Z,22.97
2022-11-30T05:00:55.615Z,21.90
2022-11-30T05:03:24.252Z,21.97
2022-11-30T05:05:51.454Z,23.17
2022-11-30T05:08:18.672Z,23.03
2022-11-30T05:10:50.173Z,24.53
2022-11-30T05:13:21.348Z,24.43
2022-11-30T05:15:48.543Z,24.33
2022-11-30T05:18:16.306Z,24.00
2022-11-30T05:20:48.459Z,21.67
2022-11-30T05:23:16.729Z,22.93
2022-11-30T05:25:44.807Z,21.90
2022-11-30T05:28:12.934Z,25.70
2022-11-30T05:30:42.081Z,25.37
2022-11-30T05:33:09.275Z,26.20
2022-11-30T05:35:36.718Z,25.53
2022-11-30T05:38:04.686Z,23.57
2022-11-30T05:40:33.721Z,25.33
2022-11-30T05:43:02.513Z,23.77
2022-11-30T05:45:30.417Z,21.30
2022-11-30T05:47:57.715Z,22.53
2022-11-30T05:50:25.003Z,22.40
2022-11-30T05:52:58.379Z,21.30
2022-11-30T05:55:25.597Z,22.03
2022-11-30T05:57:53.057Z,22.80
2022-11-30T06:00:22.043Z,22.07
2022-11-30T06:02:49.304Z,20.97
2022-11-30T06:05:16.784Z,20.30
2022-11-30T06:07:44.152Z,20.80
2022-11-30T06:10:12.435Z,22.67
2022-11-30T06:12:39.721Z,22.00
2022-11-30T06:15:08.205Z,20.60
2022-11-30T06:17:38.291Z,21.97
2022-11-30T06:20:08.881Z,21.37
2022-11-30T06:22:36.116Z,22.03
2022-11-30T06:25:03.315Z,23.87
2022-11-30T06:27:32.213Z,22.53
2022-11-30T06:29:59.385Z,22.93
2022-11-30T06:32:26.536Z,22.27
2022-11-30T06:34:54.666Z,21.60
2022-11-30T06:37:22.833Z,21.93
2022-11-30T06:40:06.130Z,20.97
2022-11-30T06:42:35.034Z,21.27
2022-11-30T06:45:02.276Z,21.67
2022-11-30T06:47:29.585Z,20.17
2022-11-30T06:49:56.795Z,20.30
2022-11-30T06:52:24.033Z,20.97
2022-11-30T06:54:51.691Z,20.47
2022-11-30T06:57:18.807Z,20.27
2022-11-30T06:59:46.926Z,21.80
2022-11-30T07:02:18.350Z,21.20
2022-11-30T07:04:47.220Z,20.60
2022-11-30T07:07:15.428Z,22.67
2022-11-30T07:09:42.647Z,21.53
2022-11-30T07:12:09.734Z,21.37
2022-11-30T07:14:36.936Z,21.63
2022-11-30T07:17:05.991Z,22.57
2022-11-30T07:19:36.367Z,22.33
2022-11-30T07:22:03.820Z,22.27
2022-11-30T07:24:50.522Z,22.40
2022-11-30T07:27:18.197Z,22.20
2022-11-30T07:29:45.404Z,21.43
2022-11-30T07:32:12.728Z,20.97
2022-11-30T07:34:39.899Z,20.43
2022-11-30T07:37:07.046Z,20.13
2022-11-30T07:39:34.196Z,19.90
2022-11-30T07:42:02.652Z,21.37
2022-11-30T07:44:29.884Z,21.23
2022-11-30T07:46:57.150Z,20.60
2022-11-30T07:49:24.212Z,21.53
2022-11-30T07:51:51.345Z,22.53
2022-11-30T07:54:18.634Z,23.10
2022-11-30T07:56:46.087Z,21.60
2022-11-30T07:59:13.345Z,21.57
2022-11-30T08:01:40.722Z,20.23
2022-11-30T08:04:08.045Z,21.43
2022-11-30T08:06:35.501Z,20.50
2022-11-30T08:09:04.184Z,20.20
2022-11-30T08:11:34.163Z,22.20
2022-11-30T08:14:02.782Z,30.33
2022-11-30T08:16:31.558Z,40.40
2022-11-30T08:18:59.168Z,28.20
2022-11-30T08:21:26.483Z,23.77
2022-11-30T08:23:56.764Z,24.63
2022-11-30T08:26:30.221Z,19.13
2022-11-30T08:28:59.106Z,19.40
2022-11-30T08:31:32.208Z,19.93
2022-11-30T08:34:08.796Z,21.70
2022-11-30T08:36:35.994Z,23.30
2022-11-30T08:39:06.099Z,25.43
2022-11-30T08:41:35.097Z,29.40
2022-11-30T08:44:03.359Z,24.40
2022-11-30T08:49:22.085Z,25.97
2022-11-30T08:54:43.000Z,60.80
2022-11-30T08:57:10.294Z,54.10
2022-11-30T08:59:38.133Z,27.53
2022-11-30T09:02:06.005Z,25.37
2022-11-30T09:04:33.413Z,19.63
2022-11-30T09:07:01.184Z,20.77
2022-11-30T09:09:29.066Z,20.93
2022-11-30T09:11:56.420Z,21.40
2022-11-30T09:14:23.587Z,20.80
2022-11-30T09:16:50.931Z,21.50
2022-11-30T09:19:18.148Z,17.17
2022-11-30T09:21:51.157Z,17.23
2022-11-30T09:24:19.062Z,16.30
2022-11-30T09:26:46.254Z,16.53
2022-11-30T09:29:13.607Z,16.97
2022-11-30T09:31:41.068Z,17.83
2022-11-30T09:34:11.428Z,18.03
2022-11-30T09:36:39.015Z,17.80
2022-11-30T09:39:06.884Z,18.63
2022-11-30T09:42:01.611Z,16.17
2022-11-30T09:44:51.220Z,16.57
2022-11-30T09:47:39.906Z,26.27
2022-11-30T09:50:18.466Z,26.40
2022-11-30T09:52:51.392Z,18.73
2022-11-30T09:55:27.160Z,16.80
2022-11-30T09:58:02.195Z,15.20
2022-11-30T10:00:29.947Z,17.00
2022-11-30T10:02:59.543Z,18.00
2022-11-30T10:05:44.816Z,18.57
2022-11-30T10:08:17.803Z,16.70
2022-11-30T10:11:13.497Z,15.90
2022-11-30T10:13:49.584Z,19.50
2022-11-30T10:16:41.186Z,17.23
2022-11-30T10:19:46.222Z,18.30
2022-11-30T10:23:04.627Z,17.23
2022-11-30T10:25:43.728Z,16.83
2022-11-30T10:28:50.871Z,18.03
2022-11-30T10:31:20.387Z,16.43
2022-11-30T10:33:52.723Z,16.17
2022-11-30T10:36:25.863Z,16.50
2022-11-30T10:39:07.344Z,16.70
2022-11-30T10:41:46.376Z,16.90
2022-11-30T10:44:42.673Z,17.23
2022-11-30T10:47:34.321Z,34.67
2022-11-30T10:50:01.621Z,33.40
2022-11-30T10:52:51.508Z,31.20
2022-11-30T10:55:23.431Z,15.10
2022-11-30T10:57:56.036Z,15.70
2022-11-30T11:00:23.460Z,14.13
2022-11-30T11:02:52.587Z,15.33
2022-11-30T11:05:23.463Z,15.10
2022-11-30T11:07:55.404Z,14.30
2022-11-30T11:10:35.373Z,14.37
2022-11-30T11:13:03.020Z,12.90
2022-11-30T11:15:33.107Z,13.60
2022-11-30T11:18:16.277Z,14.13
2022-11-30T11:20:43.932Z,13.40
2022-11-30T11:23:27.551Z,14.37
2022-11-30T11:25:55.248Z,14.07
2022-11-30T11:28:24.606Z,13.60
2022-11-30T11:30:55.340Z,13.37
2022-11-30T11:33:25.943Z,13.10
2022-11-30T11:36:16.096Z,13.23
2022-11-30T11:38:48.992Z,12.70
2022-11-30T11:41:19.898Z,12.33
2022-11-30T11:44:09.059Z,12.93
2022-11-30T11:46:51.758Z,12.67
2022-11-30T11:49:23.719Z,12.87
2022-11-30T11:52:16.490Z,14.27
2022-11-30T11:54:54.883Z,12.33
2022-11-30T11:57:40.367Z,16.63
2022-11-30T12:00:22.150Z,25.93
2022-11-30T12:02:54.041Z,38.83
2022-11-30T12:05:33.585Z,23.33
2022-11-30T12:08:11.114Z,15.00
2022-11-30T12:10:52.190Z,14.63
2022-11-30T12:13:41.081Z,13.93
2022-11-30T12:16:27.143Z,10.57
2022-11-30T12:19:08.149Z,10.60
2022-11-30T12:21:50.067Z,10.43
2022-11-30T12:25:01.284Z,11.90
2022-11-30T12:27:52.076Z,13.13
2022-11-30T12:30:36.354Z,13.77
2022-11-30T12:33:38.757Z,14.57
2022-11-30T12:36:20.191Z,10.07
2022-11-30T12:38:59.092Z,12.10
2022-11-30T12:41:42.867Z,11.80
2022-11-30T12:44:38.489Z,10.73
2022-11-30T12:47:21.233Z,10.60
2022-11-30T12:50:22.242Z,9.80
2022-11-30T12:52:54.167Z,12.10
2022-11-30T12:55:48.468Z,10.87
2022-11-30T12:58:39.038Z,9.93
2022-11-30T13:01:29.407Z,10.53
2022-11-30T13:04:03.106Z,11.00
2022-11-30T13:06:56.077Z,10.13
2022-11-30T13:09:58.628Z,9.97
2022-11-30T13:12:36.460Z,10.53
2022-11-30T13:15:15.312Z,10.60
2022-11-30T13:17:44.580Z,10.20
2022-11-30T13:20:30.220Z,11.90
2022-11-30T13:23:07.429Z,9.77
2022-11-30T13:26:12.040Z,15.53
2022-11-30T13:28:42.236Z,15.70
2022-11-30T13:31:21.090Z,26.07
2022-11-30T13:33:57.300Z,29.23
2022-11-30T13:36:24.420Z,19.40
2022-11-30T13:39:22.715Z,14.70
2022-11-30T13:42:27.043Z,12.13
2022-11-30T13:44:54.719Z,11.20
2022-11-30T13:47:32.129Z,11.63
2022-11-30T13:50:06.466Z,17.03
2022-11-30T13:52:58.779Z,13.63
2022-11-30T13:55:50.044Z,12.27
2022-11-30T13:58:19.913Z,13.77
2022-11-30T14:01:25.826Z,12.53
2022-11-30T14:04:14.643Z,12.73
2022-11-30T14:06:41.829Z,11.53
2022-11-30T14:09:35.030Z,12.60
2022-11-30T14:12:34.968Z,12.63
2022-11-30T14:15:03.565Z,11.93
2022-11-30T14:17:34.701Z,12.60
2022-11-30T14:20:19.189Z,11.60
2022-11-30T14:22:47.990Z,11.23
2022-11-30T14:25:17.853Z,12.20
2022-11-30T14:27:45.800Z,13.50
2022-11-30T14:30:21.989Z,13.20
2022-11-30T14:32:59.995Z,12.40
2022-11-30T14:35:30.445Z,12.50
2022-11-30T14:37:59.704Z,42.07
2022-11-30T14:40:33.665Z,84.37
2022-11-30T14:43:02.908Z,25.10
2022-11-30T14:45:33.643Z,52.00
2022-11-30T14:48:07.003Z,26.97
2022-11-30T14:50:36.071Z,40.73
2022-11-30T14:53:21.688Z,30.00
2022-11-30T14:56:09.655Z,19.03
2022-11-30T14:58:41.248Z,18.67
2022-11-30T15:01:32.417Z,15.50
2022-11-30T15:04:27.854Z,14.07
2022-11-30T15:06:56.880Z,13.90
2022-11-30T15:09:32.539Z,12.00
2022-11-30T15:12:00.310Z,14.03
2022-11-30T15:14:27.839Z,13.57
2022-11-30T15:16:59.680Z,13.60
2022-11-30T15:19:32.338Z,13.60
2022-11-30T15:22:00.548Z,14.87
2022-11-30T15:24:29.972Z,13.87
2022-11-30T15:27:10.566Z,14.27
2022-11-30T15:29:47.053Z,14.57
2022-11-30T15:32:23.426Z,15.40
2022-11-30T15:34:59.088Z,15.57
2022-11-30T15:37:38.303Z,15.03
2022-11-30T15:40:09.624Z,16.07
2022-11-30T15:42:40.554Z,15.97
2022-11-30T15:45:24.639Z,15.03
2022-11-30T15:47:53.732Z,16.23
2022-11-30T15:50:28.553Z,16.03
2022-11-30T15:53:01.738Z,15.93
2022-11-30T15:55:50.418Z,16.87
2022-11-30T15:58:40.052Z,17.27
2022-11-30T16:01:19.761Z,17.27
2022-11-30T16:04:10.129Z,18.23
2022-11-30T16:06:46.922Z,18.40
2022-11-30T16:09:40.429Z,19.73
2022-11-30T16:12:28.091Z,19.33
2022-11-30T16:14:55.580Z,20.53
2022-11-30T16:17:23.451Z,19.47
2022-11-30T16:19:50.803Z,20.47
2022-11-30T16:22:18.023Z,19.30
2022-11-30T16:24:45.222Z,20.20
2022-11-30T16:27:20.554Z,21.23
2022-11-30T16:29:52.406Z,23.53
2022-11-30T16:32:20.691Z,22.37
2022-11-30T16:34:48.823Z,22.90
2022-11-30T16:37:16.739Z,23.10
2022-11-30T16:39:43.905Z,24.07
2022-11-30T16:42:14.378Z,24.90
2022-11-30T16:44:41.869Z,25.50
2022-11-30T16:47:09.049Z,25.07
2022-11-30T16:49:36.460Z,28.57
2022-11-30T16:52:03.947Z,30.03
2022-11-30T16:54:31.491Z,27.83
2022-11-30T16:56:58.714Z,27.17
2022-11-30T16:59:26.019Z,27.50
2022-11-30T17:01:53.446Z,28.37
2022-11-30T17:04:23.050Z,29.00
2022-11-30T17:06:53.620Z,27.40
2022-11-30T17:09:23.256Z,28.80
2022-11-30T17:11:51.880Z,29.97
2022-11-30T17:14:21.503Z,31.33
2022-11-30T17:16:48.698Z,32.77
2022-11-30T17:19:16.893Z,44.23
2022-11-30T17:21:44.928Z,43.00
2022-11-30T17:24:13.364Z,37.00
2022-11-30T17:26:40.951Z,36.63
2022-11-30T17:29:08.173Z,29.47
2022-11-30T17:31:37.058Z,31.63
2022-11-30T17:34:04.512Z,31.40
2022-11-30T17:36:31.724Z,31.30
2022-11-30T17:38:59.014Z,28.77
2022-11-30T17:41:26.137Z,28.57
2022-11-30T17:43:53.372Z,29.70
2022-11-30T17:46:21.274Z,31.10
2022-11-30T17:48:49.966Z,31.60
2022-11-30T17:51:17.475Z,29.80
2022-11-30T17:53:44.886Z,29.53
2022-11-30T17:56:15.267Z,28.90
2022-11-30T17:58:44.977Z,30.27
2022-11-30T18:01:25.221Z,29.27
2022-11-30T18:03:53.832Z,28.27
2022-11-30T18:06:21.367Z,28.97
2022-11-30T18:08:48.836Z,29.70
2022-11-30T18:11:20.373Z,28.93
2022-11-30T18:13:50.142Z,27.30
2022-11-30T18:16:29.745Z,25.83
2022-11-30T18:18:58.953Z,31.77
2022-11-30T18:21:29.908Z,30.43
2022-11-30T18:23:59.127Z,34.10
2022-11-30T18:26:27.478Z,30.00
2022-11-30T18:28:59.719Z,30.20
2022-11-30T18:31:29.602Z,30.10
2022-11-30T18:33:59.762Z,29.07
2022-11-30T18:36:28.026Z,31.47
2022-11-30T18:38:55.354Z,30.50
2022-11-30T18:41:26.258Z,31.23
2022-11-30T18:43:54.862Z,30.13
2022-11-30T18:46:22.352Z,30.00
2022-11-30T18:48:54.801Z,28.50
2022-11-30T18:51:27.476Z,29.20
2022-11-30T18:53:59.995Z,26.83
2022-11-30T18:56:30.455Z,27.33
2022-11-30T18:59:00.146Z,28.77
2022-11-30T19:01:28.107Z,27.97
2022-11-30T19:03:57.727Z,26.07
2022-11-30T19:06:28.535Z,29.30
2022-11-30T19:09:01.076Z,29.03
2022-11-30T19:11:28.372Z,28.13
2022-11-30T19:13:57.326Z,28.53
2022-11-30T19:16:26.204Z,27.67
2022-11-30T19:18:54.240Z,26.83
2022-11-30T19:21:23.115Z,25.43
2022-11-30T19:23:50.687Z,24.90
2022-11-30T19:26:17.935Z,25.17
2022-11-30T19:28:46.319Z,25.53
2022-11-30T19:31:19.612Z,25.30
2022-11-30T19:33:49.292Z,24.60
2022-11-30T19:36:28.126Z,25.27
2022-11-30T19:38:58.235Z,24.97
2022-11-30T19:41:25.842Z,25.27
2022-11-30T19:44:03.133Z,24.27
2022-11-30T19:46:33.453Z,25.27
2022-11-30T19:49:02.077Z,26.63
2022-11-30T19:51:31.402Z,26.70
2022-11-30T19:53:59.836Z,25.97
2022-11-30T19:56:29.185Z,25.93
2022-11-30T19:59:03.778Z,25.23
2022-11-30T20:01:32.354Z,25.00
2022-11-30T20:03:59.741Z,27.43
2022-11-30T20:06:33.204Z,26.77
2022-11-30T20:09:00.625Z,26.63
2022-11-30T20:11:28.732Z,27.27
2022-11-30T20:13:56.151Z,26.13
2022-11-30T20:16:23.977Z,28.07
2022-11-30T20:19:02.807Z,27.63
2022-11-30T20:21:33.290Z,28.30
2022-11-30T20:24:02.871Z,26.60
2022-11-30T20:26:36.736Z,28.53
2022-11-30T20:29:06.171Z,26.30
2022-11-30T20:31:36.330Z,25.13
2022-11-30T20:34:04.247Z,26.97
2022-11-30T20:36:31.451Z,26.77
2022-11-30T20:38:59.893Z,27.03
2022-11-30T20:41:27.641Z,26.40
2022-11-30T20:43:55.471Z,27.10
2022-11-30T20:46:31.317Z,25.30
2022-11-30T20:48:59.400Z,25.27
2022-11-30T20:51:33.015Z,26.17
2022-11-30T20:54:03.741Z,27.77
2022-11-30T20:56:31.362Z,26.97
2022-11-30T20:59:02.454Z,25.43
2022-11-30T21:01:30.003Z,28.17
2022-11-30T21:03:59.737Z,26.53
2022-11-30T21:06:28.549Z,26.17
2022-11-30T21:08:56.071Z,26.23
2022-11-30T21:11:23.903Z,26.57
2022-11-30T21:13:52.276Z,26.70
2022-11-30T21:16:27.363Z,27.00
2022-11-30T21:19:00.335Z,27.60
2022-11-30T21:21:35.539Z,27.90
2022-11-30T21:24:06.702Z,27.90
2022-11-30T21:26:38.000Z,27.33
2022-11-30T21:29:08.376Z,27.87
2022-11-30T21:31:36.688Z,26.57
2022-11-30T21:34:04.032Z,26.97
2022-11-30T21:36:31.286Z,27.10
2022-11-30T21:39:05.689Z,27.77
2022-11-30T21:41:39.191Z,27.47
2022-11-30T21:44:10.767Z,27.93
2022-11-30T21:46:39.006Z,27.30
2022-11-30T21:49:07.102Z,26.90
2022-11-30T21:51:34.601Z,26.33
2022-11-30T21:54:04.963Z,26.73
2022-11-30T21:56:35.043Z,27.13
2022-11-30T21:59:04.886Z,27.50
2022-11-30T22:01:35.506Z,27.27
2022-11-30T22:04:05.400Z,27.33
2022-11-30T22:06:35.153Z,27.97
2022-11-30T22:09:09.332Z,28.70
2022-11-30T22:11:40.511Z,27.83
2022-11-30T22:14:12.194Z,27.97
2022-11-30T22:16:40.712Z,27.43
2022-11-30T22:19:08.048Z,27.83
2022-11-30T22:21:36.316Z,26.57
2022-11-30T22:24:07.263Z,27.63
2022-11-30T22:26:43.045Z,27.27
2022-11-30T22:29:16.210Z,26.03
2022-11-30T22:31:46.387Z,26.90
2022-11-30T22:34:14.469Z,28.07
2022-11-30T22:36:43.351Z,28.37
2022-11-30T22:39:19.988Z,28.17
2022-11-30T22:41:54.715Z,26.77
2022-11-30T22:44:23.572Z,27.37
2022-11-30T22:46:50.892Z,26.47
2022-11-30T22:49:21.638Z,26.30
2022-11-30T22:51:50.370Z,27.43
2022-11-30T22:54:18.876Z,29.00
2022-11-30T22:56:46.992Z,27.50
2022-11-30T22:59:15.747Z,27.70
2022-11-30T23:01:46.156Z,26.63
2022-11-30T23:04:18.907Z,27.10
2022-11-30T23:06:47.641Z,27.13
2022-11-30T23:09:20.598Z,29.33
2022-11-30T23:11:49.389Z,26.70
2022-11-30T23:14:16.890Z,28.17
2022-11-30T23:16:45.447Z,27.97
2022-11-30T23:19:13.437Z,28.43
2022-11-30T23:21:45.093Z,27.27
2022-11-30T23:24:20.934Z,27.20
2022-11-30T23:26:48.896Z,30.10
2022-11-30T23:29:17.979Z,28.60
2022-11-30T23:31:46.522Z,27.07
2022-11-30T23:34:18.031Z,28.73
2022-11-30T23:36:45.442Z,27.90
2022-11-30T23:39:16.006Z,27.37
2022-11-30T23:41:43.847Z,27.70
2022-11-30T23:44:11.776Z,29.20
2022-11-30T23:46:39.153Z,28.03
2022-11-30T23:49:06.596Z,27.87
2022-11-30T23:51:33.928Z,26.80
2022-11-30T23:54:01.046Z,28.20
2022-11-30T23:56:28.257Z,28.33
2022-11-30T23:58:55.407Z,26.77
